Time;durP1;ratioP1;P1;durP2;ratioP2;P2;SDS_P1;SDS_P2;PMS_P1;PMS_P2;Temp;Humidity;BMP_temperature;BMP_pressure;BME280_temperature;BME280_humidity;BME280_pressure;Samples;Min_cycle;Max_cycle;Signal;HPM_P1;HPM_P2
2021/12/18 00:00:57;;;;;;;9.52;2.78;;;;;;;5.65;58.84;101169.22;4386705;32;33307;-94
2021/12/18 00:03:50;;;;;;;5.18;2.87;;;;;;;5.70;58.13;101170.06;4363394;32;32991;-95
2021/12/18 00:06:30;;;;;;;5.18;2.47;;;;;;;5.73;58.14;101167.44;4385785;32;32755;-95
2021/12/18 00:09:25;;;;;;;7.85;2.35;;;;;;;5.70;58.14;101174.41;4382927;32;34319;-95
2021/12/18 00:12:05;;;;;;;3.42;1.98;;;;;;;5.70;58.00;101180.56;4388044;32;33960;-94
2021/12/18 00:14:50;;;;;;;4.85;2.47;;;;;;;5.75;58.06;101183.19;4392655;32;33229;-94
2021/12/18 00:17:42;;;;;;;4.03;2.22;;;;;;;6.12;56.88;101176.09;4371811;32;32240;-94
2021/12/18 00:20:21;;;;;;;5.40;1.87;;;;;;;6.03;56.97;101179.63;4368524;32;32848;-94
2021/12/18 00:23:16;;;;;;;3.57;2.03;;;;;;;6.15;56.55;101183.97;4337927;32;20490;-94
2021/12/18 00:25:56;;;;;;;5.55;2.80;;;;;;;6.08;56.72;101190.13;4340146;33;32931;-94
2021/12/18 00:28:48;;;;;;;;;;;;;;;5.50;58.71;101192.78;4356440;32;32405;-95
2021/12/18 00:31:28;;;;;;;3.40;2.17;;;;;;;5.48;59.19;101199.78;4350651;32;32915;-95
2021/12/18 00:34:20;;;;;;;6.18;2.67;;;;;;;5.14;60.10;101195.41;4338447;33;33724;-95
2021/12/18 00:37:00;;;;;;;8.70;3.17;;;;;;;5.59;59.24;101188.41;4342533;32;34172;-95
2021/12/18 00:39:52;;;;;;;6.05;2.30;;;;;;;5.28;60.12;101202.41;4338585;32;32811;-94
2021/12/18 00:42:58;;;;;;;3.53;2.37;;;;;;;5.69;58.86;101199.75;4336286;33;32677;-93
2021/12/18 00:45:38;;;;;;;4.95;2.20;;;;;;;5.35;59.80;101194.53;4353220;32;32904;-92
2021/12/18 00:48:30;;;;;;;3.60;2.60;;;;;;;5.61;59.13;101196.28;4374771;32;33487;-94
2021/12/18 00:51:10;;;;;;;6.50;3.42;;;;;;;5.79;58.53;101196.28;4367764;32;33370;-94
2021/12/18 00:54:02;;;;;;;4.20;2.23;;;;;;;5.57;59.23;101190.19;4345908;33;32349;-93
2021/12/18 00:56:42;;;;;;;5.62;2.97;;;;;;;5.74;58.76;101190.13;4372284;32;32903;-94
2021/12/18 00:59:35;;;;;;;5.20;3.07;;;;;;;5.62;59.11;101188.41;4344208;32;34045;-94
2021/12/18 01:02:14;;;;;;;7.35;3.08;;;;;;;5.71;59.14;101194.53;4393170;32;32212;-92
2021/12/18 01:05:08;;;;;;;4.90;2.83;;;;;;;5.40;60.11;101191.91;4393584;32;34317;-95
2021/12/18 01:07:48;;;;;;;5.65;2.17;;;;;;;5.23;60.99;101188.44;4391219;32;32584;-94
2021/12/18 01:13:31;;;;;;;4.90;2.80;;;;;;;5.49;60.27;101194.53;4377084;32;32188;-95
2021/12/18 01:16:26;;;;;;;8.13;3.42;;;;;;;5.53;60.08;101208.53;4389423;32;32765;-95
2021/12/18 01:25:20;;;;;;;8.65;3.47;;;;;;;5.54;60.24;101205.00;4398824;32;32642;-95
2021/12/18 01:28:12;;;;;;;7.07;3.50;;;;;;;5.33;61.23;101213.75;4361623;32;33999;-96
2021/12/18 01:30:52;;;;;;;7.37;2.95;;;;;;;5.35;61.42;101220.72;4395216;32;34004;-96
2021/12/18 01:33:44;;;;;;;9.35;3.50;;;;;;;5.07;62.16;101229.44;4352384;32;33770;-95
2021/12/18 01:52:53;;;;;;;10.35;3.92;;;;;;;5.24;62.04;101235.56;4389095;32;34566;-96
2021/12/18 01:55:51;;;;;;;9.95;3.72;;;;;;;5.38;61.36;101239.09;4323097;33;34620;-96
2021/12/18 01:58:33;;;;;;;5.90;3.33;;;;;;;5.46;61.25;101246.06;4380381;32;33204;-96
2021/12/18 02:01:27;;;;;;;5.20;2.95;;;;;;;5.51;60.99;101252.19;4349151;32;32926;-95
2021/12/18 02:04:18;;;;;;;5.87;3.20;;;;;;;5.14;61.59;101257.37;4328681;33;32071;-96
2021/12/18 02:07:01;;;;;;;4.80;2.55;;;;;;;5.40;61.25;101245.19;4342664;33;33149;-96
2021/12/18 02:10:09;;;;;;;6.75;2.83;;;;;;;5.16;61.98;101245.16;4325971;33;33180;-95
2021/12/18 02:26:07;;;;;;;6.53;3.42;;;;;;;5.54;60.45;101270.50;4388005;32;34910;-96
2021/12/18 02:29:03;;;;;;;6.28;3.30;;;;;;;5.30;61.16;101274.00;4410586;32;32493;-96
2021/12/18 02:31:46;;;;;;;9.48;3.30;;;;;;;5.34;60.74;101271.37;4396211;32;32187;-96
2021/12/18 02:34:40;;;;;;;8.43;3.15;;;;;;;5.53;60.51;101271.41;4366068;32;33101;-95
2021/12/18 02:37:24;;;;;;;7.20;3.12;;;;;;;5.43;60.97;101259.16;4365042;32;33650;-94
2021/12/18 02:42:59;;;;;;;12.25;3.55;;;;;;;5.64;60.00;101264.41;4359187;32;32633;-91
2021/12/18 02:45:26;;;;;;;6.68;2.78;;;;;;;5.16;61.69;101276.59;4360725;32;32519;-93
2021/12/18 02:48:18;;;;;;;7.93;3.08;;;;;;;5.39;60.86;101287.97;4363154;32;32753;-95
2021/12/18 02:50:57;;;;;;;10.85;3.90;;;;;;;5.67;59.73;101290.63;4391837;32;32441;-95
2021/12/18 02:53:51;;;;;;;9.77;3.10;;;;;;;5.49;60.29;101293.22;4352931;32;32629;-91
2021/12/18 02:56:33;;;;;;;7.70;3.45;;;;;;;5.15;61.38;101295.78;4367117;32;33651;-93
2021/12/18 02:59:25;;;;;;;5.12;2.92;;;;;;;4.74;62.25;101288.66;4357932;32;33538;-93
2021/12/18 03:02:05;;;;;;;6.47;3.58;;;;;;;5.43;60.79;101280.13;4355947;32;33457;-91
2021/12/18 03:04:55;;;;;;;5.87;3.20;;;;;;;4.92;61.81;101271.28;4345995;32;33577;-93
2021/12/18 03:07:36;;;;;;;6.50;3.50;;;;;;;5.47;60.60;101282.75;4353078;32;32662;-93
2021/12/18 03:21:04;;;;;;;9.95;3.12;;;;;;;5.52;60.47;101295.84;4383705;32;32842;-92
2021/12/18 03:23:40;;;;;;;9.57;2.90;;;;;;;5.43;60.58;101293.22;4343304;32;31102;-92
2021/12/18 03:26:20;;;;;;;11.68;4.20;;;;;;;5.26;60.89;101304.53;4362771;32;32983;-90
2021/12/18 03:28:55;;;;;;;13.10;3.95;;;;;;;5.25;60.87;101308.03;4365897;32;32993;-91
2021/12/18 03:31:26;;;;;;;4.57;2.67;;;;;;;5.54;59.92;101312.44;4340261;32;33304;-93
2021/12/18 03:34:18;;;;;;;5.50;3.30;;;;;;;5.62;59.51;101310.72;4386438;32;32549;-92
2021/12/18 03:36:54;;;;;;;7.37;2.75;;;;;;;5.50;59.77;101314.19;4387776;32;32182;-92
2021/12/18 03:39:49;;;;;;;5.00;2.35;;;;;;;5.18;60.76;101311.53;4373557;32;32746;-92
2021/12/18 03:42:29;;;;;;;7.53;2.92;;;;;;;5.25;60.72;101312.41;4362992;32;33399;-91
2021/12/18 03:45:25;;;;;;;4.65;2.25;;;;;;;5.40;59.97;101321.16;4355386;32;33323;-90
2021/12/18 03:47:54;;;;;;;11.30;3.10;;;;;;;5.27;60.59;101324.63;4340308;32;32205;-91
2021/12/18 03:51:02;;;;;;;9.07;4.32;;;;;;;4.92;61.42;101314.03;4348394;32;33685;-92
2021/12/18 03:53:45;;;;;;;9.77;3.22;;;;;;;5.06;61.15;101306.22;4335369;32;32817;-91
2021/12/18 03:56:18;;;;;;;8.63;3.42;;;;;;;5.29;60.39;101308.91;4355545;32;33941;-92
2021/12/18 03:58:58;;;;;;;8.65;3.50;;;;;;;5.17;60.83;101316.72;4347184;32;32356;-93
2021/12/18 04:01:51;;;;;;;10.45;3.30;;;;;;;5.14;60.81;101325.47;4348547;32;32673;-95
2021/12/18 04:04:45;;;;;;;8.15;3.40;;;;;;;5.11;60.90;101325.44;4349589;32;35323;-92
2021/12/18 04:07:27;;;;;;;7.97;3.03;;;;;;;5.13;60.88;101328.97;4372556;32;33049;-90
2021/12/18 04:10:18;;;;;;;4.62;2.85;;;;;;;5.02;61.15;101328.91;4371839;32;32368;-91
2021/12/18 04:13:01;;;;;;;8.50;3.92;;;;;;;4.71;62.17;101320.06;4368504;32;32276;-92
2021/12/18 04:15:30;;;;;;;6.40;3.58;;;;;;;5.16;60.85;101307.13;4360205;32;32933;-94
2021/12/18 04:18:10;;;;;;;8.45;3.12;;;;;;;5.12;60.86;101304.50;4405865;32;33839;-94
2021/12/18 04:21:03;;;;;;;8.82;3.22;;;;;;;5.24;60.50;101311.53;4348609;32;33387;-95
2021/12/18 04:23:43;;;;;;;6.12;3.10;;;;;;;5.21;60.80;101295.78;4379835;32;33058;-96
2021/12/18 04:26:35;;;;;;;5.93;2.47;;;;;;;5.12;60.88;101311.47;4376823;32;32406;-96
2021/12/18 04:33:40;;;;;;;5.75;2.90;;;;;;;5.14;60.68;101322.84;4382476;32;34462;-94
2021/12/18 04:36:22;;;;;;;;;;;;;;;4.76;61.99;101327.94;4368372;32;32558;-94
2021/12/18 04:39:14;;;;;;;4.82;2.78;;;;;;;4.94;61.29;101332.34;4356378;32;33205;-95
2021/12/18 04:41:57;;;;;;;8.80;3.20;;;;;;;4.80;61.82;101324.47;4372432;32;33110;-94
2021/12/18 04:44:49;;;;;;;8.18;3.12;;;;;;;4.95;61.43;101331.53;4347570;33;32570;-95
2021/12/18 04:47:29;;;;;;;14.75;3.42;;;;;;;4.82;61.71;101344.53;4377759;32;33174;-91
2021/12/18 04:50:21;;;;;;;9.55;3.53;;;;;;;4.90;61.54;101338.47;4348494;32;33009;-91
2021/12/18 04:53:00;;;;;;;5.78;2.70;;;;;;;5.11;60.65;101355.13;4381557;32;32997;-94
2021/12/18 04:55:53;;;;;;;7.85;2.97;;;;;;;5.29;60.12;101359.53;4338563;33;32613;-94
2021/12/18 04:58:33;;;;;;;6.32;2.70;;;;;;;5.42;59.40;101372.69;4354167;32;32989;-95
2021/12/18 05:01:24;;;;;;;8.77;3.20;;;;;;;5.25;59.81;101373.50;4343118;33;33383;-95
2021/12/18 05:04:10;;;;;;;5.12;2.85;;;;;;;5.32;59.80;101377.91;4351587;32;32663;-95
2021/12/18 05:07:02;;;;;;;4.85;2.60;;;;;;;5.37;59.36;101381.41;4375085;32;32235;-95
2021/12/18 05:09:42;;;;;;;9.35;3.10;;;;;;;5.16;60.06;101383.94;4346276;33;33960;-95
2021/12/18 05:12:35;;;;;;;6.82;3.15;;;;;;;5.54;58.70;101388.41;4363027;32;34565;-95
2021/12/18 05:15:15;;;;;;;12.63;4.10;;;;;;;5.36;59.23;101392.75;4373765;32;32428;-96
2021/12/18 05:18:06;;;;;;;9.65;3.08;;;;;;;5.06;59.92;101400.47;4397832;32;32366;-96
2021/12/18 05:20:57;;;;;;;5.95;3.35;;;;;;;5.26;59.62;101408.41;4359246;32;32893;-96
2021/12/18 05:23:49;;;;;;;7.43;3.47;;;;;;;5.14;59.58;101414.50;4363165;32;32754;-96
2021/12/18 05:26:29;;;;;;;9.77;3.67;;;;;;;5.32;59.20;101413.69;4361351;32;32863;-96
2021/12/18 05:29:21;;;;;;;7.30;2.97;;;;;;;4.75;60.96;101416.03;4363033;32;32411;-96
2021/12/18 05:32:00;;;;;;;8.50;3.80;;;;;;;4.69;61.10;101415.97;4317741;33;33214;-95
2021/12/18 05:34:51;;;;;;;7.35;3.35;;;;;;;4.76;60.86;101420.41;4365860;32;33861;-96
2021/12/18 05:37:43;;;;;;;7.37;3.12;;;;;;;4.78;60.63;101421.28;4374311;32;32864;-94
2021/12/18 05:40:37;;;;;;;10.05;2.78;;;;;;;4.84;60.44;101425.66;4403083;32;33016;-94
2021/12/18 05:43:17;;;;;;;6.07;3.40;;;;;;;4.97;60.12;101421.38;4395996;32;32811;-96
2021/12/18 05:46:08;;;;;;;8.75;3.12;;;;;;;4.80;60.26;101418.69;4377706;32;33916;-96
2021/12/18 05:48:48;;;;;;;6.07;3.03;;;;;;;4.75;60.50;101420.41;4323918;33;32659;-94
2021/12/18 05:51:40;;;;;;;8.13;2.87;;;;;;;5.10;59.71;101421.44;4328012;33;32121;-96
2021/12/18 05:54:20;;;;;;;7.75;3.95;;;;;;;5.43;58.46;101421.59;4357970;32;33321;-96
2021/12/18 05:57:14;;;;;;;8.68;3.83;;;;;;;5.29;58.82;101424.16;4347587;33;33206;-96
2021/12/18 05:59:54;;;;;;;5.68;2.83;;;;;;;5.45;58.31;101427.69;4361033;32;33133;-96
2021/12/18 06:07:08;;;;;;;12.32;3.58;;;;;;;5.34;58.52;101430.28;4380498;32;34743;-95
2021/12/18 06:10:00;;;;;;;11.10;3.95;;;;;;;4.87;59.86;101437.03;4337686;33;33146;-96
2021/12/18 06:12:39;;;;;;;10.20;4.70;;;;;;;4.73;60.48;101427.34;4377196;32;33086;-96
2021/12/18 06:15:31;;;;;;;9.05;4.43;;;;;;;5.04;59.37;101423.19;4366750;32;33900;-95
2021/12/18 06:18:11;;;;;;;9.30;4.18;;;;;;;5.05;59.50;101431.03;4368136;32;33245;-93
2021/12/18 06:21:03;;;;;;;5.23;3.33;;;;;;;5.04;59.46;101431.91;4361307;32;33722;-95
2021/12/18 06:23:44;;;;;;;6.65;3.60;;;;;;;4.91;59.80;101443.19;4360536;32;32858;-95
2021/12/18 06:26:38;;;;;;;5.80;3.60;;;;;;;4.81;60.07;101447.47;4333799;33;33660;-93
2021/12/18 06:29:17;;;;;;;13.90;4.25;;;;;;;4.58;60.80;101442.09;4372432;32;33015;-93
2021/12/18 06:32:08;;;;;;;8.07;3.78;;;;;;;4.70;60.54;101443.94;4357796;32;33141;-90
2021/12/18 06:34:36;;;;;;;8.95;4.15;;;;;;;4.46;61.14;101448.97;4359000;32;32740;-90
2021/12/18 06:37:04;;;;;;;7.75;3.22;;;;;;;4.77;60.29;101439.59;4346914;32;33540;-90
2021/12/18 06:39:32;;;;;;;10.43;3.58;;;;;;;4.69;60.53;101434.31;4346510;32;33085;-90
2021/12/18 06:42:00;;;;;;;7.12;3.42;;;;;;;4.69;60.17;101446.50;4347183;32;33606;-90
2021/12/18 06:44:30;;;;;;;8.63;3.33;;;;;;;4.29;61.52;101447.09;4334318;33;33132;-89
2021/12/18 06:46:58;;;;;;;5.97;3.58;;;;;;;4.52;60.53;101459.50;4334164;33;32248;-90
2021/12/18 06:49:25;;;;;;;8.23;4.22;;;;;;;4.66;60.70;101473.56;4322037;33;34108;-89
2021/12/18 06:51:54;;;;;;;10.65;3.67;;;;;;;4.54;61.35;101470.84;4334552;33;34123;-89
2021/12/18 06:54:21;;;;;;;7.22;3.67;;;;;;;4.48;61.15;101476.03;4333795;32;34134;-89
2021/12/18 06:56:49;;;;;;;7.57;3.37;;;;;;;4.40;61.71;101477.69;4358225;32;33467;-89
2021/12/18 06:59:17;;;;;;;7.80;3.78;;;;;;;4.32;61.90;101481.13;4334265;33;32944;-89
2021/12/18 07:01:45;;;;;;;14.38;3.25;;;;;;;4.54;61.56;101478.69;4358530;32;33941;-88
2021/12/18 07:04:13;;;;;;;6.95;3.53;;;;;;;4.18;62.09;101480.13;4346594;33;32785;-91
2021/12/18 07:06:43;;;;;;;8.98;4.07;;;;;;;4.49;61.51;101475.16;4358788;32;32680;-91
2021/12/18 07:09:32;;;;;;;9.27;3.87;;;;;;;4.64;61.20;101472.66;4374839;32;33392;-90
2021/12/18 07:12:23;;;;;;;8.20;3.33;;;;;;;4.07;63.13;101473.91;4380142;32;32851;-94
2021/12/18 07:15:05;;;;;;;6.35;3.33;;;;;;;4.24;62.76;101479.31;4320804;33;32759;-93
2021/12/18 07:17:56;;;;;;;8.80;3.37;;;;;;;4.58;61.66;101476.09;4400800;32;32471;-92
2021/12/18 07:20:35;;;;;;;8.05;2.90;;;;;;;4.64;61.08;101470.03;4362614;32;33114;-92
2021/12/18 07:23:30;;;;;;;8.27;2.80;;;;;;;4.78;60.76;101464.91;4358835;32;33039;-93
2021/12/18 07:26:12;;;;;;;9.38;3.80;;;;;;;4.37;62.48;101470.72;4354675;32;34952;-88
2021/12/18 07:28:40;;;;;;;8.23;3.78;;;;;;;4.64;61.26;101464.78;4353649;32;32246;-88
2021/12/18 07:31:08;;;;;;;9.27;3.60;;;;;;;4.49;62.29;101469.91;4353036;32;34010;-89
2021/12/18 07:33:37;;;;;;;6.95;3.53;;;;;;;4.62;61.80;101466.53;4365358;32;32665;-89
2021/12/18 07:36:07;;;;;;;14.23;4.40;;;;;;;4.55;61.88;101475.19;4352627;32;33162;-87
2021/12/18 07:38:35;;;;;;;9.85;4.47;;;;;;;4.70;61.51;101480.56;4351310;32;32718;-87
2021/12/18 07:41:03;;;;;;;9.48;3.95;;;;;;;4.51;62.35;101494.34;4351739;32;33386;-88
2021/12/18 07:43:32;;;;;;;11.48;4.28;;;;;;;4.66;61.97;101489.25;4352023;32;33943;-87
2021/12/18 07:46:00;;;;;;;6.25;4.18;;;;;;;4.76;61.68;101496.28;4351797;32;33723;-87
2021/12/18 07:48:28;;;;;;;7.18;3.53;;;;;;;4.97;61.26;101499.91;4351817;32;32505;-87
2021/12/18 07:50:56;;;;;;;8.95;3.62;;;;;;;4.81;61.75;101510.28;4354838;32;32814;-87
2021/12/18 07:53:24;;;;;;;8.35;3.95;;;;;;;5.21;60.31;101510.53;4351761;32;33182;-87
2021/12/18 07:55:52;;;;;;;15.10;5.00;;;;;;;5.12;60.72;101510.47;4363992;32;34518;-87
2021/12/18 07:58:20;;;;;;;10.50;4.72;;;;;;;5.29;60.20;101511.47;4348194;32;33172;-87
2021/12/18 08:00:47;;;;;;;10.90;5.07;;;;;;;5.10;60.86;101518.34;4351365;32;33225;-87
2021/12/18 08:03:16;;;;;;;9.45;4.60;;;;;;;5.37;60.19;101525.47;4351735;32;32944;-87
2021/12/18 08:05:44;;;;;;;8.85;4.20;;;;;;;5.40;59.95;101525.47;4351019;32;34433;-91
2021/12/18 08:08:12;;;;;;;13.82;5.18;;;;;;;5.16;60.93;101519.22;4351020;32;32847;-90
2021/12/18 08:10:40;;;;;;;12.63;6.00;;;;;;;5.42;60.07;101503.69;4350541;32;32938;-89
2021/12/18 08:13:08;;;;;;;10.45;4.62;;;;;;;5.50;60.08;101494.09;4363049;32;33895;-91
2021/12/18 08:15:36;;;;;;;9.07;4.32;;;;;;;5.33;60.47;101507.13;4351314;32;32683;-91
2021/12/18 08:18:07;;;;;;;9.48;4.60;;;;;;;5.34;60.35;101512.34;4351722;32;32362;-85
2021/12/18 08:20:35;;;;;;;8.93;3.53;;;;;;;5.19;61.10;101507.03;4364105;32;33316;-87
2021/12/18 08:23:04;;;;;;;12.52;4.75;;;;;;;5.54;59.69;101498.47;4349419;32;33770;-86
2021/12/18 08:25:33;;;;;;;5.05;3.62;;;;;;;5.44;59.75;101513.28;4347683;32;34433;-86
2021/12/18 08:28:02;;;;;;;11.57;4.85;;;;;;;5.40;60.12;101515.00;4336188;32;33483;-86
2021/12/18 08:30:31;;;;;;;7.75;4.57;;;;;;;5.37;60.38;101506.28;4347509;32;32994;-86
2021/12/18 08:33:00;;;;;;;8.25;3.72;;;;;;;5.68;59.10;101502.00;4360531;32;32995;-86
2021/12/18 08:35:29;;;;;;;12.90;4.68;;;;;;;5.83;58.34;101495.94;4348446;32;34377;-86
2021/12/18 08:37:57;;;;;;;11.27;4.65;;;;;;;5.87;58.83;101502.94;4360822;32;34164;-86
2021/12/18 08:40:26;;;;;;;7.97;3.60;;;;;;;5.46;59.95;101508.03;4334844;32;33666;-86
2021/12/18 08:42:54;;;;;;;8.20;4.03;;;;;;;5.57;59.75;101509.84;4348293;32;33623;-86
2021/12/18 08:45:22;;;;;;;9.48;3.75;;;;;;;5.99;58.63;101507.41;4361025;32;34866;-86
2021/12/18 08:47:50;;;;;;;8.63;3.83;;;;;;;5.89;58.79;101504.72;4360812;32;31720;-88
2021/12/18 08:50:19;;;;;;;11.15;4.37;;;;;;;6.05;57.91;101508.28;4357764;32;33578;-86
2021/12/18 08:52:47;;;;;;;7.75;3.65;;;;;;;6.05;58.02;101507.41;4342712;32;33332;-86
2021/12/18 08:55:17;;;;;;;5.22;3.05;;;;;;;6.34;56.91;101499.56;4355222;32;33855;-85
2021/12/18 08:57:45;;;;;;;7.85;4.03;;;;;;;6.49;56.20;101503.94;4347319;32;32422;-87
2021/12/18 09:00:16;;;;;;;7.20;3.50;;;;;;;6.10;57.82;101500.41;4348997;32;33104;-87
2021/12/18 09:02:47;;;;;;;10.32;4.35;;;;;;;6.37;56.69;101495.22;4337397;32;33228;-87
2021/12/18 09:05:16;;;;;;;10.68;3.67;;;;;;;6.57;55.92;101503.09;4363618;32;34888;-93
2021/12/18 09:08:08;;;;;;;7.57;3.33;;;;;;;7.03;54.41;101496.91;4336442;32;33294;-92
2021/12/18 09:10:48;;;;;;;8.95;3.65;;;;;;;6.62;55.64;101497.84;4361388;32;32976;-93
2021/12/18 09:13:39;;;;;;;9.55;3.25;;;;;;;6.58;55.52;101498.69;4334272;33;33690;-93
2021/12/18 09:16:19;;;;;;;8.18;3.62;;;;;;;7.10;54.23;101494.25;4335961;32;32677;-92
2021/12/18 09:19:09;;;;;;;8.80;2.70;;;;;;;6.91;53.60;101482.91;4357168;32;33404;-92
2021/12/18 09:21:49;;;;;;;8.65;4.00;;;;;;;6.82;54.50;101489.94;4331414;33;32864;-94
2021/12/18 09:24:40;;;;;;;9.63;4.68;;;;;;;7.33;52.81;101482.81;4338061;33;33686;-94
2021/12/18 09:27:22;;;;;;;12.37;3.10;;;;;;;7.25;53.75;101488.09;4368439;32;34335;-92
2021/12/18 09:30:14;;;;;;;9.63;3.00;;;;;;;7.00;53.12;101481.16;4379757;32;32356;-93
2021/12/18 09:32:54;;;;;;;6.87;3.10;;;;;;;7.14;53.39;101479.38;4363011;32;32926;-91
2021/12/18 09:35:45;;;;;;;7.83;3.10;;;;;;;7.37;52.24;101477.53;4342375;32;33299;-91
2021/12/18 09:38:15;;;;;;;8.45;2.97;;;;;;;7.69;51.73;101481.75;4344189;32;32768;-90
2021/12/18 09:41:00;;;;;;;6.90;2.62;;;;;;;7.56;51.60;101469.59;4352488;32;32959;-91
2021/12/18 09:43:40;;;;;;;6.07;3.42;;;;;;;7.63;50.97;101469.53;4341291;32;33950;-90
2021/12/18 09:46:13;;;;;;;12.60;3.05;;;;;;;7.14;52.59;101489.88;4341942;33;33276;-90
2021/12/18 09:49:10;;;;;;;9.52;4.05;;;;;;;7.29;52.51;101488.97;4328341;33;32935;-92
2021/12/18 09:52:35;;;;;;;;;;;;;;;;;;;;;
2021/12/18 09:56:07;;;;;;;9.65;3.28;;;;;;;7.36;51.69;101477.56;4365447;32;34954;-91
2021/12/18 09:58:48;;;;;;;9.30;2.60;;;;;;;7.81;50.67;101483.47;4313356;33;32708;-90
2021/12/18 10:01:43;;;;;;;7.95;2.67;;;;;;;7.65;51.00;101473.03;4300086;33;33090;-90
2021/12/18 10:04:36;;;;;;;6.35;3.00;;;;;;;7.76;49.98;101465.09;4305875;33;32375;-90
2021/12/18 10:07:18;;;;;;;5.75;2.83;;;;;;;7.64;50.39;101470.41;4326535;33;33412;-90
2021/12/18 10:09:51;;;;;;;8.88;3.10;;;;;;;7.66;50.13;101473.91;4324626;33;33121;-90
2021/12/18 10:12:33;;;;;;;4.28;2.53;;;;;;;7.48;50.94;101466.09;4339497;32;33694;-91
2021/12/18 10:15:24;;;;;;;7.50;3.20;;;;;;;7.31;51.67;101472.31;4306694;33;32221;-93
2021/12/18 10:18:06;;;;;;;6.60;2.70;;;;;;;7.03;52.80;101475.91;4368887;32;33262;-94
2021/12/18 10:21:20;;;;;;;6.93;2.78;;;;;;;7.05;51.94;101468.88;4279579;33;33085;-93
2021/12/18 10:24:17;;;;;;;3.87;2.55;;;;;;;7.50;50.92;101461.72;4338881;33;33700;-91
2021/12/18 10:27:37;;;;;;;3.58;2.35;;;;;;;7.89;49.78;101458.88;4327936;33;32509;-93
2021/12/18 10:30:20;;;;;;;7.65;3.03;;;;;;;7.89;49.70;101461.50;4343893;32;32571;-91
2021/12/18 10:33:12;;;;;;;4.82;2.78;;;;;;;7.98;48.86;101459.72;4299879;33;32143;-93
2021/12/18 10:35:54;;;;;;;5.60;2.45;;;;;;;8.10;48.81;101452.59;4346356;32;32697;-94
2021/12/18 10:38:54;;;;;;;5.15;2.87;;;;;;;8.06;49.88;101447.37;4359549;32;31685;-92
2021/12/18 10:41:35;;;;;;;5.85;2.60;;;;;;;8.06;49.39;101436.84;4355586;32;33649;-91
2021/12/18 10:44:23;;;;;;;5.93;2.35;;;;;;;8.24;48.02;101430.56;4361473;32;32600;-93
2021/12/18 10:46:52;;;;;;;5.50;2.42;;;;;;;8.45;47.01;101425.12;4360635;32;34375;-95
2021/12/18 10:49:44;;;;;;;7.93;2.80;;;;;;;8.19;49.16;101420.94;4365688;32;33563;-89
2021/12/18 10:52:12;;;;;;;10.60;1.85;;;;;;;8.46;47.58;101411.12;4375784;32;34136;-93
2021/12/18 10:55:05;;;;;;;5.80;2.87;;;;;;;8.66;46.24;101409.16;4358445;32;33093;-95
2021/12/18 10:57:54;;;;;;;5.93;2.05;;;;;;;8.54;46.83;101404.00;4377223;32;32902;-95
2021/12/18 11:01:29;;;;;;;2.75;1.70;;;;;;;8.75;45.72;101395.03;4399078;32;33850;-95
2021/12/18 11:04:08;;;;;;;6.50;2.08;;;;;;;8.56;47.18;101396.09;4378312;32;33433;-94
2021/12/18 11:07:29;;;;;;;8.65;2.08;;;;;;;8.14;47.92;101398.19;4354662;32;33783;-93
2021/12/18 11:10:42;;;;;;;4.57;1.60;;;;;;;8.50;46.36;101402.31;4394803;32;32771;-87
2021/12/18 11:16:06;;;;;;;7.40;2.25;;;;;;;8.55;46.54;101383.84;4369990;32;32825;-85
2021/12/18 11:18:35;;;;;;;4.57;1.85;;;;;;;8.30;46.66;101372.63;4369325;32;33092;-86
2021/12/18 11:21:03;;;;;;;7.03;2.17;;;;;;;8.14;47.09;101372.75;4393259;32;33886;-93
2021/12/18 11:23:44;;;;;;;3.42;1.83;;;;;;;8.02;47.23;101356.19;4381266;32;32645;-88
2021/12/18 11:26:21;;;;;;;5.65;2.20;;;;;;;8.58;45.99;101352.19;4383384;32;34315;-88
2021/12/18 11:28:51;;;;;;;6.82;1.73;;;;;;;8.28;47.30;101350.72;4380661;32;33565;-88
2021/12/18 11:31:19;;;;;;;5.68;2.58;;;;;;;8.27;46.98;101355.09;4394410;32;32999;-88
2021/12/18 11:33:46;;;;;;;3.65;2.37;;;;;;;8.58;46.61;101344.28;4370332;32;32737;-88
2021/12/18 11:36:20;;;;;;;3.67;2.22;;;;;;;8.60;46.38;101342.53;4393545;32;33642;-88
2021/12/18 11:38:51;;;;;;;5.85;2.42;;;;;;;8.40;47.22;101343.62;4393210;32;32990;-87
2021/12/18 11:41:20;;;;;;;5.72;1.55;;;;;;;8.52;45.87;101324.16;4381854;32;33631;-88
2021/12/18 11:43:48;;;;;;;3.92;2.15;;;;;;;8.08;47.28;101332.50;4394977;32;33530;-89
2021/12/18 11:46:46;;;;;;;2.65;1.48;;;;;;;8.40;46.59;101332.19;4369914;32;33435;-87
2021/12/18 11:49:14;;;;;;;4.55;1.67;;;;;;;8.13;46.83;101330.69;4368738;32;34321;-86
2021/12/18 11:51:56;;;;;;;4.20;1.58;;;;;;;8.17;46.85;101337.66;4381264;32;32997;-87
2021/12/18 11:54:41;;;;;;;;;;;;;;;7.90;47.43;101326.50;4380887;32;32316;-87
2021/12/18 11:57:10;;;;;;;2.92;1.98;;;;;;;7.54;48.33;101332.88;4376915;32;33846;-87
2021/12/18 11:59:43;;;;;;;6.53;2.08;;;;;;;7.60;48.31;101332.00;4393223;32;34670;-87
2021/12/18 12:02:12;;;;;;;3.62;2.10;;;;;;;7.62;48.41;101335.47;4394601;32;33822;-87
2021/12/18 12:05:00;;;;;;;4.40;1.90;;;;;;;7.66;49.01;101329.31;4396474;32;32144;-87
2021/12/18 12:07:28;;;;;;;7.85;2.30;;;;;;;7.55;48.31;101324.16;4382860;32;33449;-87
2021/12/18 12:10:21;;;;;;;5.47;2.70;;;;;;;7.43;49.01;101325.09;4396893;32;33541;-87
2021/12/18 12:12:56;;;;;;;6.68;2.37;;;;;;;7.51;48.85;101317.16;4396535;32;32141;-88
2021/12/18 12:15:27;;;;;;;5.18;2.12;;;;;;;7.42;50.12;101322.47;4397897;32;33004;-88
2021/12/18 12:18:00;;;;;;;4.80;2.22;;;;;;;7.52;50.06;101321.53;4395979;32;34142;-87
2021/12/18 12:20:46;;;;;;;2.30;1.52;;;;;;;7.68;49.36;101320.50;4366581;32;34097;-88
2021/12/18 12:23:15;;;;;;;3.55;1.92;;;;;;;8.14;48.44;101327.16;4403834;32;33754;-88
2021/12/18 12:25:51;;;;;;;4.65;2.08;;;;;;;7.72;49.29;101339.78;4390372;32;32991;-87
2021/12/18 12:28:25;;;;;;;4.37;2.72;;;;;;;7.98;48.39;101329.06;4406179;32;33344;-87
2021/12/18 12:31:09;;;;;;;5.97;2.78;;;;;;;8.03;47.75;101321.13;4374291;32;32543;-87
2021/12/18 12:33:39;;;;;;;4.03;1.87;;;;;;;7.91;48.26;101330.84;4369790;32;33410;-87
2021/12/18 12:36:13;;;;;;;3.92;1.85;;;;;;;7.70;48.10;101323.16;4384517;32;32778;-87
2021/12/18 12:38:51;;;;;;;5.37;2.33;;;;;;;7.33;49.24;101328.66;4377624;32;32544;-87
2021/12/18 12:41:24;;;;;;;4.22;2.00;;;;;;;7.37;49.39;101327.75;4391054;32;34779;-87
2021/12/18 12:43:57;;;;;;;5.70;2.37;;;;;;;7.42;49.71;101320.72;4394947;32;34147;-87
2021/12/18 12:46:27;;;;;;;7.40;2.47;;;;;;;7.65;48.93;101325.81;4393958;32;33119;-88
2021/12/18 12:49:01;;;;;;;7.55;2.92;;;;;;;7.52;49.74;101334.66;4374331;32;33571;-88
2021/12/18 12:51:58;;;;;;;8.07;3.12;;;;;;;7.94;48.45;101327.34;4395705;32;34040;-88
2021/12/18 12:54:46;;;;;;;8.07;2.95;;;;;;;8.00;48.80;101331.69;4393399;32;34341;-89
2021/12/18 12:57:27;;;;;;;4.47;2.15;;;;;;;7.95;47.58;101322.06;4381621;32;32596;-88
2021/12/18 12:59:58;;;;;;;4.90;2.40;;;;;;;7.63;48.91;101324.94;4391947;32;32381;-88
2021/12/18 13:02:27;;;;;;;4.93;2.10;;;;;;;7.89;47.59;101332.63;4403471;32;33037;-87
2021/12/18 13:05:11;;;;;;;6.43;2.83;;;;;;;7.76;48.44;101328.34;4379837;32;33028;-87
2021/12/18 13:07:52;;;;;;;9.77;2.22;;;;;;;8.00;47.33;101336.94;4367365;32;31964;-87
2021/12/18 13:10:21;;;;;;;6.93;2.20;;;;;;;7.61;47.79;101339.88;4392395;32;33342;-87
2021/12/18 13:12:52;;;;;;;7.35;2.65;;;;;;;7.57;47.68;101338.13;4393835;32;33562;-87
2021/12/18 13:15:20;;;;;;;3.62;1.80;;;;;;;7.56;48.55;101331.13;4397620;32;33698;-88
2021/12/18 13:18:04;;;;;;;6.22;2.03;;;;;;;7.48;48.82;101314.53;4367822;32;32481;-87
2021/12/18 13:21:00;;;;;;;6.20;2.28;;;;;;;7.59;48.53;101304.81;4392404;32;33852;-87
2021/12/18 13:23:40;;;;;;;6.70;2.20;;;;;;;7.75;48.77;101305.59;4391184;32;32906;-87
2021/12/18 13:26:10;;;;;;;7.07;3.25;;;;;;;7.59;49.45;101310.06;4379749;32;33484;-88
2021/12/18 13:28:49;;;;;;;3.53;2.33;;;;;;;7.62;49.18;101309.19;4379789;32;33587;-88
2021/12/18 13:31:17;;;;;;;6.37;2.22;;;;;;;7.92;47.26;101311.56;4379601;32;32463;-88
2021/12/18 13:33:53;;;;;;;5.78;2.25;;;;;;;7.63;48.34;101306.53;4382742;32;33391;-87
2021/12/18 13:36:21;;;;;;;4.70;2.33;;;;;;;7.68;48.03;101309.13;4376850;32;32921;-88
2021/12/18 13:38:49;;;;;;;3.92;2.15;;;;;;;7.74;47.58;101314.38;4379905;32;31981;-87
2021/12/18 13:41:19;;;;;;;4.65;2.50;;;;;;;7.48;48.51;101305.78;4392372;32;32706;-88
2021/12/18 13:43:55;;;;;;;5.50;2.80;;;;;;;6.93;51.21;101305.25;4382352;32;33812;-95